createdAt,value
2023-01-30T00:00:25.930Z,85.93
2023-01-30T00:05:27.643Z,86.03
2023-01-30T00:10:29.450Z,85.76
2023-01-30T00:15:33.375Z,86.12
2023-01-30T00:20:35.193Z,86.72
2023-01-30T00:25:36.932Z,86.70
2023-01-30T00:30:38.849Z,86.08
2023-01-30T00:35:47.038Z,86.51
2023-01-30T00:40:48.854Z,86.32
2023-01-30T00:46:10.998Z,86.85
2023-01-30T00:51:12.719Z,86.82
2023-01-30T00:56:14.508Z,87.01
2023-01-30T01:01:18.130Z,87.59
2023-01-30T01:06:19.963Z,87.89
2023-01-30T01:11:24.674Z,88.69
2023-01-30T01:16:28.447Z,88.21
2023-01-30T01:21:32.839Z,87.92
2023-01-30T01:26:34.528Z,88.22
2023-01-30T01:31:37.597Z,88.34
2023-01-30T01:36:53.122Z,87.98
2023-01-30T01:41:56.140Z,87.39
2023-01-30T01:46:59.992Z,87.83
2023-01-30T01:52:11.468Z,87.71
2023-01-30T01:57:19.863Z,87.91
2023-01-30T02:02:22.181Z,88.13
2023-01-30T02:07:26.228Z,88.32
2023-01-30T02:12:28.128Z,88.36
2023-01-30T02:17:30.160Z,88.92
2023-01-30T02:23:10.251Z,88.18
2023-01-30T02:28:24.133Z,88.02
2023-01-30T02:33:57.329Z,88.55
2023-01-30T02:39:32.601Z,88.30
2023-01-30T02:44:42.177Z,88.50
2023-01-30T02:50:23.459Z,88.71
2023-01-30T02:55:28.194Z,88.53
2023-01-30T03:01:12.504Z,88.78
2023-01-30T03:07:30.128Z,88.25
2023-01-30T03:12:49.295Z,88.32
2023-01-30T03:17:51.551Z,88.52
2023-01-30T03:22:55.138Z,88.84
2023-01-30T03:27:57.636Z,88.64
2023-01-30T03:32:59.650Z,89.00
2023-01-30T03:38:02.186Z,89.05
2023-01-30T03:43:04.478Z,89.40
2023-01-30T03:48:07.102Z,89.03
2023-01-30T03:53:08.853Z,89.02
2023-01-30T03:58:11.013Z,89.15
2023-01-30T04:03:15.686Z,88.68
2023-01-30T04:08:17.746Z,88.85
2023-01-30T04:13:19.516Z,88.90
2023-01-30T04:18:21.794Z,88.97
2023-01-30T04:23:32.623Z,88.81
2023-01-30T04:28:34.962Z,89.01
2023-01-30T04:33:37.257Z,89.02
2023-01-30T04:38:41.361Z,89.10
2023-01-30T04:43:43.149Z,88.71
2023-01-30T04:49:14.284Z,88.72
2023-01-30T04:54:16.266Z,88.71
2023-01-30T04:59:18.110Z,88.78
2023-01-30T05:04:22.022Z,89.03
2023-01-30T05:09:23.772Z,90.19
2023-01-30T05:14:25.395Z,89.96
2023-01-30T05:19:27.072Z,89.98
2023-01-30T05:24:28.976Z,90.04
2023-01-30T05:29:30.660Z,90.12
2023-01-30T05:34:32.361Z,90.77
2023-01-30T05:39:34.081Z,90.68
2023-01-30T05:44:35.707Z,90.34
2023-01-30T05:49:37.296Z,90.24
2023-01-30T05:54:38.957Z,90.67
2023-01-30T05:59:40.551Z,90.66
2023-01-30T06:04:42.448Z,90.65
2023-01-30T06:09:44.032Z,90.12
2023-01-30T06:14:45.669Z,90.19
2023-01-30T06:19:47.283Z,89.53
2023-01-30T06:24:48.917Z,89.51
2023-01-30T06:29:50.540Z,89.56
2023-01-30T06:34:52.144Z,89.58
2023-01-30T06:39:53.798Z,89.57
2023-01-30T06:44:55.511Z,89.58
2023-01-30T06:49:57.104Z,89.54
2023-01-30T06:54:58.901Z,89.32
2023-01-30T07:00:00.554Z,89.67
2023-01-30T07:05:03.677Z,89.38
2023-01-30T07:10:08.958Z,89.65
2023-01-30T07:15:11.071Z,90.08
2023-01-30T07:20:13.995Z,90.08
2023-01-30T07:25:16.694Z,90.00
2023-01-30T07:30:18.911Z,89.78
2023-01-30T07:35:23.009Z,89.97
2023-01-30T07:40:25.584Z,90.15
2023-01-30T07:45:36.677Z,90.32
2023-01-30T07:50:38.627Z,89.83
2023-01-30T07:55:40.923Z,89.61
2023-01-30T08:00:42.867Z,89.55
2023-01-30T08:05:47.321Z,88.81
2023-01-30T08:10:49.422Z,88.60
2023-01-30T08:15:51.406Z,88.76
2023-01-30T08:20:57.423Z,88.61
2023-01-30T08:26:02.080Z,88.24
2023-01-30T08:31:09.898Z,88.00
2023-01-30T08:36:11.611Z,87.57
2023-01-30T08:41:13.315Z,86.34
2023-01-30T08:46:15.095Z,86.65
2023-01-30T08:51:17.033Z,85.11
2023-01-30T08:56:18.762Z,83.90
2023-01-30T09:01:20.505Z,82.03
2023-01-30T09:06:23.349Z,78.01
2023-01-30T09:11:26.195Z,75.75
2023-01-30T09:16:27.884Z,73.17
2023-01-30T09:21:29.715Z,73.33
2023-01-30T09:26:32.083Z,71.89
2023-01-30T09:31:34.018Z,71.69
2023-01-30T09:36:35.767Z,70.91
2023-01-30T09:41:46.526Z,70.87
2023-01-30T09:47:05.892Z,71.18
2023-01-30T09:52:41.347Z,70.36
2023-01-30T09:57:45.303Z,69.79
2023-01-30T10:03:06.124Z,69.52
2023-01-30T10:08:26.399Z,70.12
2023-01-30T10:13:49.435Z,69.29
2023-01-30T10:19:35.152Z,68.87
2023-01-30T10:24:55.490Z,70.65
2023-01-30T10:30:01.697Z,71.85
2023-01-30T10:35:19.087Z,71.99
2023-01-30T10:40:29.543Z,72.68
2023-01-30T10:45:41.608Z,73.31
2023-01-30T10:50:48.553Z,73.68
2023-01-30T10:55:57.643Z,73.86
2023-01-30T11:01:05.458Z,73.62
2023-01-30T11:06:26.002Z,73.60
2023-01-30T11:11:41.132Z,74.48
2023-01-30T11:16:45.801Z,73.28
2023-01-30T11:21:53.674Z,72.61
2023-01-30T11:26:56.701Z,71.30
2023-01-30T11:32:03.878Z,70.99
2023-01-30T11:37:32.055Z,69.63
2023-01-30T11:42:33.688Z,68.79
2023-01-30T11:47:35.655Z,68.15
2023-01-30T11:52:38.932Z,68.38
2023-01-30T11:57:51.219Z,67.11
2023-01-30T12:02:54.693Z,67.02
2023-01-30T12:08:14.828Z,66.96
2023-01-30T12:13:23.825Z,66.44
2023-01-30T12:18:25.287Z,66.81
2023-01-30T12:23:53.322Z,66.33
2023-01-30T12:29:32.479Z,66.26
2023-01-30T12:34:34.310Z,66.56
2023-01-30T12:39:57.750Z,66.37
2023-01-30T12:45:24.065Z,67.51
2023-01-30T12:50:46.161Z,68.29
2023-01-30T12:55:47.701Z,68.76
2023-01-30T13:01:22.346Z,68.97
2023-01-30T13:06:48.647Z,70.19
2023-01-30T13:12:09.793Z,72.50
2023-01-30T13:17:48.347Z,73.98
2023-01-30T13:23:06.312Z,73.50
2023-01-30T13:28:26.175Z,75.85
2023-01-30T13:33:35.138Z,77.16
2023-01-30T13:38:41.933Z,78.37
2023-01-30T13:43:50.297Z,80.69
2023-01-30T13:49:07.936Z,81.69
2023-01-30T13:54:21.993Z,82.27
2023-01-30T13:59:36.003Z,82.81
2023-01-30T14:04:40.785Z,83.79
2023-01-30T14:09:51.563Z,85.02
2023-01-30T14:15:15.529Z,86.15
2023-01-30T14:20:20.822Z,87.04
2023-01-30T14:25:22.678Z,87.83
2023-01-30T14:30:37.886Z,88.12
2023-01-30T14:35:39.563Z,87.61
2023-01-30T14:40:45.978Z,86.86
2023-01-30T14:45:53.852Z,85.88
2023-01-30T14:51:29.477Z,84.40
2023-01-30T14:57:01.203Z,83.23
2023-01-30T15:02:15.047Z,82.92
2023-01-30T15:07:20.420Z,81.57
2023-01-30T15:13:00.229Z,81.27
2023-01-30T15:18:17.221Z,80.55
2023-01-30T15:23:56.390Z,80.62
2023-01-30T15:29:34.592Z,81.00
2023-01-30T15:34:36.343Z,81.28
2023-01-30T15:39:38.064Z,81.10
2023-01-30T15:44:53.448Z,81.21
2023-01-30T15:49:59.862Z,81.81
2023-01-30T15:55:02.293Z,81.62
2023-01-30T16:00:09.239Z,81.87
2023-01-30T16:05:25.401Z,82.42
2023-01-30T16:10:30.653Z,82.51
2023-01-30T16:15:41.842Z,82.66
2023-01-30T16:21:00.807Z,81.57
2023-01-30T16:26:04.821Z,81.62
2023-01-30T16:31:09.595Z,80.96
2023-01-30T16:36:20.474Z,81.52
2023-01-30T16:41:41.126Z,80.58
2023-01-30T16:46:42.822Z,80.79
2023-01-30T16:51:45.598Z,81.67
2023-01-30T16:56:51.665Z,81.58
2023-01-30T17:01:55.384Z,82.08
2023-01-30T17:07:04.183Z,82.26
2023-01-30T17:12:28.048Z,82.37
2023-01-30T17:17:29.725Z,81.90
2023-01-30T17:22:31.810Z,82.39
2023-01-30T17:27:34.248Z,82.66
2023-01-30T17:32:35.822Z,82.21
2023-01-30T17:37:37.422Z,82.03
2023-01-30T17:42:39.376Z,82.27
2023-01-30T17:47:41.133Z,82.69
2023-01-30T17:52:42.726Z,82.98
2023-01-30T17:57:47.471Z,82.76
2023-01-30T18:02:49.352Z,83.02
2023-01-30T18:07:51.018Z,82.80
2023-01-30T18:12:52.632Z,82.40
2023-01-30T18:17:56.472Z,82.06
2023-01-30T18:22:58.078Z,81.58
2023-01-30T18:27:59.715Z,81.25
2023-01-30T18:33:01.571Z,81.11
2023-01-30T18:38:04.792Z,81.00
2023-01-30T18:43:06.853Z,80.68
2023-01-30T18:48:08.989Z,80.28
2023-01-30T18:53:10.693Z,80.68
2023-01-30T18:58:12.354Z,79.67
2023-01-30T19:03:15.947Z,80.01
2023-01-30T19:08:17.578Z,80.08
2023-01-30T19:13:34.280Z,80.48
2023-01-30T19:18:36.405Z,80.30
2023-01-30T19:23:38.983Z,79.76
2023-01-30T19:28:44.782Z,79.81
2023-01-30T19:33:48.590Z,80.49
2023-01-30T19:38:51.884Z,80.98
2023-01-30T19:43:55.305Z,82.40
2023-01-30T19:48:57.907Z,83.28
2023-01-30T19:54:02.354Z,83.89
2023-01-30T19:59:04.519Z,83.46
2023-01-30T20:04:07.355Z,82.84
2023-01-30T20:09:11.827Z,82.36
2023-01-30T20:14:13.647Z,81.72
2023-01-30T20:19:17.306Z,81.89
2023-01-30T20:24:19.349Z,81.22
2023-01-30T20:29:21.286Z,81.76
2023-01-30T20:34:23.140Z,81.91
2023-01-30T20:39:24.990Z,82.00
2023-01-30T20:44:27.042Z,82.13
2023-01-30T20:49:28.919Z,81.71
2023-01-30T20:54:30.486Z,82.06
2023-01-30T20:59:32.289Z,82.02
2023-01-30T21:04:34.001Z,82.10
2023-01-30T21:09:36.065Z,81.49
2023-01-30T21:14:38.345Z,81.32
2023-01-30T21:19:41.976Z,81.95
2023-01-30T21:24:45.229Z,82.33
2023-01-30T21:29:46.979Z,83.02
2023-01-30T21:34:48.620Z,83.57
2023-01-30T21:40:08.855Z,84.10
2023-01-30T21:45:10.533Z,83.81
2023-01-30T21:50:12.221Z,83.55
2023-01-30T21:55:13.903Z,83.02
2023-01-30T22:00:15.679Z,83.42
2023-01-30T22:05:17.897Z,83.96
2023-01-30T22:10:19.779Z,83.97
2023-01-30T22:15:22.795Z,83.57
2023-01-30T22:20:24.437Z,83.21
2023-01-30T22:25:26.000Z,82.58
2023-01-30T22:30:27.609Z,82.22
2023-01-30T22:35:29.279Z,82.00
2023-01-30T22:40:30.965Z,81.74
2023-01-30T22:45:35.100Z,80.93
2023-01-30T22:50:37.040Z,81.22
2023-01-30T22:55:39.246Z,81.07
2023-01-30T23:00:40.921Z,80.34
2023-01-30T23:05:42.601Z,79.26
2023-01-30T23:10:44.228Z,78.74
2023-01-30T23:15:46.875Z,78.51
2023-01-30T23:20:48.486Z,78.22
2023-01-30T23:25:50.097Z,78.65
2023-01-30T23:30:51.872Z,78.92
2023-01-30T23:35:53.470Z,78.79
2023-01-30T23:41:11.378Z,78.37
2023-01-30T23:46:31.290Z,78.10
2023-01-30T23:51:35.497Z,78.86
2023-01-30T23:56:40.199Z,78.85
